createdAt,value
2018-07-21T00:01:02.090Z,97158.78
2018-07-21T00:03:30.598Z,97127.33
2018-07-21T00:05:59.094Z,97136.46
2018-07-21T00:08:27.602Z,97124.29
2018-07-21T00:10:56.109Z,97137.48
2018-07-21T00:13:25.043Z,97155.73
2018-07-21T00:15:53.494Z,97139.50
2018-07-21T00:18:21.950Z,97175.01
2018-07-21T00:20:50.428Z,97156.75
2018-07-21T00:23:19.329Z,97170.95
2018-07-21T00:25:47.820Z,97155.73
2018-07-21T00:28:16.272Z,97141.53
2018-07-21T00:30:44.839Z,97138.49
2018-07-21T00:33:13.308Z,97095.88
2018-07-21T00:35:41.853Z,97148.63
2018-07-21T00:38:10.823Z,97165.88
2018-07-21T00:40:39.320Z,97113.13
2018-07-21T00:43:08.298Z,97157.77
2018-07-21T00:45:36.890Z,97128.34
2018-07-21T00:48:05.507Z,97160.81
2018-07-21T00:50:34.015Z,97133.42
2018-07-21T00:53:02.529Z,97150.66
2018-07-21T00:55:31.022Z,97124.29
2018-07-21T00:57:59.502Z,97125.30
2018-07-21T01:00:28.006Z,97166.89
2018-07-21T01:02:56.502Z,97161.82
2018-07-21T01:05:24.973Z,97159.80
2018-07-21T01:07:53.503Z,97127.33
2018-07-21T01:10:22.040Z,97209.50
2018-07-21T01:12:50.564Z,97166.89
2018-07-21T01:15:19.039Z,97189.21
2018-07-21T01:17:47.604Z,97145.59
2018-07-21T01:20:17.053Z,97151.68
2018-07-21T01:22:45.556Z,97131.39
2018-07-21T01:25:14.345Z,97142.55
2018-07-21T01:27:42.897Z,97168.92
2018-07-21T01:30:11.562Z,97143.56
2018-07-21T01:32:40.045Z,97135.45
2018-07-21T01:35:08.616Z,97097.91
2018-07-21T01:37:37.111Z,97174.00
2018-07-21T01:40:05.616Z,97133.42
2018-07-21T01:42:34.097Z,97145.59
2018-07-21T01:45:02.605Z,97200.38
2018-07-21T01:47:31.094Z,97181.09
2018-07-21T01:49:59.673Z,97233.84
2018-07-21T01:52:28.248Z,97189.21
2018-07-21T01:54:57.133Z,97225.73
2018-07-21T01:57:25.614Z,97210.52
2018-07-21T01:59:54.092Z,97112.11
2018-07-21T02:02:22.924Z,97159.80
2018-07-21T02:04:51.568Z,97211.53
2018-07-21T02:07:20.139Z,97172.98
2018-07-21T02:09:48.684Z,97093.86
2018-07-21T02:12:17.221Z,97146.61
2018-07-21T02:14:45.769Z,97197.33
2018-07-21T02:17:14.355Z,97195.30
2018-07-21T02:19:43.226Z,97212.55
2018-07-21T02:22:11.966Z,97294.72
2018-07-21T02:24:40.483Z,97327.19
2018-07-21T02:27:09.095Z,97283.56
2018-07-21T02:29:37.588Z,97309.94
2018-07-21T02:32:06.377Z,97370.81
2018-07-21T02:34:34.972Z,97347.48
2018-07-21T02:37:03.543Z,97355.59
2018-07-21T02:39:32.177Z,97347.48
2018-07-21T02:42:00.666Z,97399.22
2018-07-21T02:44:29.144Z,97385.02
2018-07-21T02:46:57.644Z,97382.98
2018-07-21T02:49:26.137Z,97443.85
2018-07-21T02:51:54.651Z,97416.46
2018-07-21T02:54:23.215Z,97374.86
2018-07-21T02:56:51.724Z,97377.91
2018-07-21T02:59:20.226Z,97403.27
2018-07-21T03:01:48.784Z,97403.27
2018-07-21T03:04:17.333Z,97407.33
2018-07-21T03:06:45.830Z,97386.02
2018-07-21T03:09:14.394Z,97416.46
2018-07-21T03:11:42.902Z,97420.52
2018-07-21T03:14:11.451Z,97417.48
2018-07-21T03:16:39.935Z,97396.17
2018-07-21T03:19:08.502Z,97390.09
2018-07-21T03:21:37.076Z,97420.52
2018-07-21T03:24:05.614Z,97420.52
2018-07-21T03:26:34.136Z,97417.48
2018-07-21T03:29:02.630Z,97406.31
2018-07-21T03:31:31.200Z,97407.33
2018-07-21T03:33:59.677Z,97443.85
2018-07-21T03:36:28.164Z,97422.55
2018-07-21T03:38:56.692Z,97457.05
2018-07-21T03:41:25.192Z,97411.39
2018-07-21T03:43:53.789Z,97468.20
2018-07-21T03:46:22.278Z,97481.39
2018-07-21T03:48:50.841Z,97454.00
2018-07-21T03:51:19.316Z,97456.03
2018-07-21T03:53:47.794Z,97477.34
2018-07-21T03:56:16.473Z,97488.50
2018-07-21T03:58:44.989Z,97490.52
2018-07-21T04:01:14.301Z,97461.10
2018-07-21T04:03:42.839Z,97435.73
2018-07-21T04:06:11.357Z,97436.75
2018-07-21T04:08:39.893Z,97435.73
2018-07-21T04:11:08.375Z,97405.30
2018-07-21T04:13:36.967Z,97450.95
2018-07-21T04:16:05.930Z,97398.20
2018-07-21T04:18:34.461Z,97371.82
2018-07-21T04:21:03.027Z,97419.51
2018-07-21T04:23:31.532Z,97399.22
2018-07-21T04:26:00.000Z,97423.56
2018-07-21T04:28:28.566Z,97384.00
2018-07-21T04:30:57.043Z,97433.71
2018-07-21T04:33:25.545Z,97449.94
2018-07-21T04:35:54.133Z,97442.84
2018-07-21T04:38:22.694Z,97466.17
2018-07-21T04:40:51.177Z,97384.00
2018-07-21T04:43:19.674Z,97404.29
2018-07-21T04:45:48.311Z,97380.95
2018-07-21T04:48:16.890Z,97374.86
2018-07-21T04:50:45.376Z,97352.55
2018-07-21T04:53:13.884Z,97327.19
2018-07-21T04:55:42.428Z,97385.02
2018-07-21T04:58:10.916Z,97324.14
2018-07-21T05:00:39.927Z,97299.80
2018-07-21T05:03:08.460Z,97355.59
2018-07-21T05:05:36.964Z,97351.53
2018-07-21T05:08:05.445Z,97284.58
2018-07-21T05:10:34.046Z,97337.33
2018-07-21T05:13:02.852Z,97302.84
2018-07-21T05:15:31.474Z,97297.77
2018-07-21T05:18:00.022Z,97242.98
2018-07-21T05:20:28.510Z,97248.05
2018-07-21T05:22:57.032Z,97251.09
2018-07-21T05:25:25.577Z,97231.82
2018-07-21T05:27:54.297Z,97335.30
2018-07-21T05:30:22.806Z,97275.44
2018-07-21T05:32:51.413Z,97329.21
2018-07-21T05:35:19.982Z,97276.46
2018-07-21T05:37:48.484Z,97273.41
2018-07-21T05:40:16.990Z,97164.87
2018-07-21T05:42:45.946Z,97223.70
2018-07-21T05:45:14.454Z,97208.48
2018-07-21T05:47:42.976Z,97216.60
2018-07-21T05:50:11.613Z,97162.84
2018-07-21T05:52:40.836Z,97176.02
2018-07-21T05:55:09.716Z,97036.03
2018-07-21T05:57:38.308Z,96861.55
2018-07-21T06:00:10.235Z,96753.02
2018-07-21T06:02:38.815Z,96573.48
2018-07-21T06:05:07.692Z,96650.57
2018-07-21T06:07:36.228Z,96582.61
2018-07-21T06:10:05.056Z,96829.09
2018-07-21T06:12:33.577Z,96658.69
2018-07-21T06:15:02.057Z,96681.00
2018-07-21T06:17:30.577Z,96596.81
2018-07-21T06:19:59.109Z,96152.58
2018-07-21T06:22:27.652Z,96223.57
2018-07-21T06:24:56.170Z,96498.42
2018-07-21T06:27:24.622Z,96665.78
2018-07-21T06:29:53.174Z,96462.93
2018-07-21T06:32:21.741Z,96206.33
2018-07-21T06:34:50.438Z,96662.74
2018-07-21T06:37:18.973Z,96684.05
2018-07-21T06:39:47.444Z,96412.22
2018-07-21T06:42:15.951Z,96347.30
2018-07-21T06:44:44.550Z,96318.91
2018-07-21T06:47:13.430Z,96084.63
2018-07-21T06:49:42.069Z,96285.44
2018-07-21T06:52:10.643Z,96513.64
2018-07-21T06:54:39.289Z,96334.13
2018-07-21T06:57:07.838Z,96490.31
2018-07-21T06:59:36.518Z,95876.73
2018-07-21T07:02:05.125Z,95676.97
2018-07-21T07:04:33.634Z,95754.03
2018-07-21T07:07:02.115Z,95429.55
2018-07-21T07:09:30.694Z,95638.44
2018-07-21T07:11:59.160Z,95599.90
2018-07-21T07:14:27.662Z,96197.20
2018-07-21T07:16:56.140Z,96113.03
2018-07-21T07:19:24.698Z,95688.13
2018-07-21T07:21:53.156Z,96151.56
2018-07-21T07:24:21.830Z,96112.02
2018-07-21T07:26:50.332Z,96135.34
2018-07-21T07:29:18.925Z,96025.81
2018-07-21T07:31:47.772Z,96098.83
2018-07-21T07:34:16.346Z,96159.67
2018-07-21T07:36:45.039Z,96065.36
2018-07-21T07:39:13.803Z,96211.41
2018-07-21T07:41:42.474Z,96005.53
2018-07-21T07:44:11.009Z,96124.19
2018-07-21T07:46:40.089Z,95936.56
2018-07-21T07:49:08.568Z,95963.95
2018-07-21T07:51:37.308Z,96105.92
2018-07-21T07:54:05.934Z,96128.23
2018-07-21T07:56:34.431Z,96124.19
2018-07-21T07:59:03.185Z,95627.28
2018-07-21T08:01:31.750Z,95659.73
2018-07-21T08:04:00.247Z,95732.73
2018-07-21T08:06:28.738Z,95594.83
2018-07-21T08:08:57.217Z,95375.81
2018-07-21T08:11:25.745Z,95632.35
2018-07-21T08:13:54.201Z,95851.38
2018-07-21T08:16:22.700Z,95669.87
2018-07-21T08:18:51.294Z,95803.72
2018-07-21T08:21:19.822Z,95646.55
2018-07-21T08:23:48.345Z,95766.20
2018-07-21T08:26:17.302Z,95800.68
2018-07-21T08:28:45.880Z,95850.37
2018-07-21T08:31:14.384Z,95702.31
2018-07-21T08:33:43.223Z,95833.13
2018-07-21T08:36:11.893Z,95760.12
2018-07-21T08:38:40.527Z,95799.67
2018-07-21T08:41:09.478Z,95800.68
2018-07-21T08:43:38.017Z,95784.45
2018-07-21T08:46:06.521Z,95783.44
2018-07-21T08:48:35.053Z,95690.15
2018-07-21T08:51:03.550Z,95804.73
2018-07-21T08:53:32.068Z,95880.79
2018-07-21T08:56:00.651Z,95838.20
2018-07-21T08:58:29.130Z,95701.30
2018-07-21T09:00:57.613Z,95731.73
2018-07-21T09:03:26.108Z,95833.13
2018-07-21T09:05:54.671Z,95741.87
2018-07-21T09:08:23.177Z,95781.41
2018-07-21T09:10:51.662Z,95829.08
2018-07-21T09:13:20.143Z,95698.26
2018-07-21T09:15:48.720Z,95655.67
2018-07-21T09:18:17.320Z,95640.46
2018-07-21T09:20:45.808Z,95465.05
2018-07-21T09:23:14.461Z,95470.11
2018-07-21T09:25:42.985Z,95632.35
2018-07-21T09:28:11.525Z,95410.29
2018-07-21T09:30:40.264Z,95417.39
2018-07-21T09:33:08.773Z,95402.17
2018-07-21T09:35:37.339Z,95419.41
2018-07-21T09:38:06.048Z,95495.46
2018-07-21T09:40:34.697Z,95359.59
2018-07-21T09:43:03.292Z,95296.73
2018-07-21T09:45:31.862Z,95253.13
2018-07-21T09:48:00.377Z,95346.41
2018-07-21T09:50:28.934Z,95274.42
2018-07-21T09:52:57.725Z,95353.51
2018-07-21T09:55:26.246Z,95399.13
2018-07-21T09:57:54.754Z,95357.56
2018-07-21T10:00:28.486Z,95187.23
2018-07-21T10:02:57.016Z,95263.27
2018-07-21T10:05:25.544Z,95402.17
2018-07-21T10:07:55.249Z,95341.34
2018-07-21T10:10:23.824Z,95317.00
2018-07-21T10:12:52.884Z,95252.12
2018-07-21T10:15:21.359Z,95256.17
2018-07-21T10:17:49.895Z,95477.21
2018-07-21T10:20:18.434Z,95329.17
2018-07-21T10:22:46.928Z,95276.45
2018-07-21T10:25:22.206Z,95359.59
2018-07-21T10:27:54.530Z,95254.14
2018-07-21T10:30:23.035Z,95440.70
2018-07-21T10:32:51.556Z,95098.00
2018-07-21T10:35:20.117Z,95120.31
2018-07-21T10:37:48.621Z,94955.05
2018-07-21T10:40:17.128Z,94986.48
2018-07-21T10:42:45.631Z,94903.34
2018-07-21T10:45:14.221Z,94870.91
2018-07-21T10:47:42.957Z,94834.41
2018-07-21T10:50:11.485Z,94925.66
2018-07-21T10:52:40.024Z,94836.44
2018-07-21T10:55:08.560Z,94868.88
2018-07-21T10:57:37.040Z,94981.41
2018-07-21T11:00:06.158Z,94844.55
2018-07-21T11:02:34.691Z,94905.38
2018-07-21T11:05:03.335Z,94871.92
2018-07-21T11:07:31.805Z,94745.20
2018-07-21T11:10:00.308Z,94862.80
2018-07-21T11:12:28.846Z,94667.14
2018-07-21T11:14:57.664Z,94757.37
2018-07-21T11:17:26.181Z,94571.85
2018-07-21T11:19:54.678Z,94698.56
2018-07-21T11:22:23.175Z,94564.75
2018-07-21T11:24:51.742Z,94657.00
2018-07-21T11:27:20.284Z,94565.77
2018-07-21T11:29:48.789Z,94779.67
2018-07-21T11:32:17.312Z,94989.52
2018-07-21T11:34:45.824Z,94893.21
2018-07-21T11:37:14.433Z,94898.28
2018-07-21T11:39:42.989Z,94572.87
2018-07-21T11:42:11.549Z,94688.43
2018-07-21T11:44:40.037Z,94778.66
2018-07-21T11:47:08.535Z,94347.83
2018-07-21T11:49:37.030Z,94362.02
2018-07-21T11:52:05.526Z,94331.61
2018-07-21T11:54:34.177Z,94690.45
2018-07-21T11:57:03.457Z,94805.02
2018-07-21T11:59:32.890Z,94711.75
2018-07-21T12:02:01.415Z,94426.89
2018-07-21T12:04:31.010Z,94462.38
2018-07-21T12:06:59.576Z,94626.59
2018-07-21T12:09:28.077Z,94447.17
2018-07-21T12:11:57.268Z,94603.28
2018-07-21T12:14:25.752Z,94657.00
2018-07-21T12:16:54.244Z,94671.20
2018-07-21T12:19:22.737Z,94620.52
2018-07-21T12:21:51.225Z,94368.10
2018-07-21T12:24:19.741Z,94159.30
2018-07-21T12:26:48.228Z,94174.50
2018-07-21T12:29:16.836Z,94264.72
2018-07-21T12:31:45.376Z,94716.81
2018-07-21T12:34:13.963Z,94704.65
2018-07-21T12:36:42.453Z,94642.81
2018-07-21T12:39:11.623Z,94223.16
2018-07-21T12:41:40.598Z,94447.17
2018-07-21T12:44:09.160Z,94490.76
2018-07-21T12:46:37.621Z,94578.95
2018-07-21T12:49:06.126Z,94603.28
2018-07-21T12:51:35.024Z,94599.22
2018-07-21T12:54:03.578Z,94369.12
2018-07-21T12:56:32.229Z,94143.08
2018-07-21T12:59:01.235Z,94070.11
2018-07-21T13:01:29.759Z,94317.42
2018-07-21T13:03:58.228Z,94133.95
2018-07-21T13:06:26.734Z,94288.02
2018-07-21T13:08:55.227Z,94208.97
2018-07-21T13:11:23.732Z,94206.94
2018-07-21T13:13:52.205Z,94355.94
2018-07-21T13:16:20.722Z,94203.89
2018-07-21T13:18:49.219Z,94156.26
2018-07-21T13:21:17.789Z,94189.70
2018-07-21T13:23:46.293Z,94219.09
2018-07-21T13:26:14.854Z,94410.67
2018-07-21T13:28:43.361Z,94193.77
2018-07-21T13:31:12.299Z,94083.28
2018-07-21T13:33:40.798Z,94688.43
2018-07-21T13:36:09.369Z,94667.14
2018-07-21T13:38:37.868Z,94407.64
2018-07-21T13:41:06.821Z,94453.25
2018-07-21T13:43:35.272Z,93931.25
2018-07-21T13:46:03.813Z,93910.98
2018-07-21T13:48:32.313Z,94316.41
2018-07-21T13:51:00.850Z,94139.03
2018-07-21T13:53:29.307Z,94261.67
2018-07-21T13:55:57.803Z,94239.37
2018-07-21T13:58:26.295Z,94524.20
2018-07-21T14:00:54.781Z,94012.33
2018-07-21T14:03:23.307Z,93971.79
2018-07-21T14:05:51.767Z,94004.22
2018-07-21T14:08:20.253Z,93958.61
2018-07-21T14:10:48.769Z,94225.19
2018-07-21T14:13:17.318Z,93909.97
2018-07-21T14:15:45.805Z,94034.63
2018-07-21T14:18:14.320Z,94043.75
2018-07-21T14:20:42.864Z,94352.90
2018-07-21T14:23:11.525Z,93965.70
2018-07-21T14:25:40.017Z,93817.73
2018-07-21T14:28:08.501Z,94124.84
2018-07-21T14:30:37.006Z,94111.66
2018-07-21T14:33:05.477Z,94250.52
2018-07-21T14:35:33.971Z,93857.27
2018-07-21T14:38:02.546Z,93896.79
2018-07-21T14:40:31.017Z,93777.20
2018-07-21T14:42:59.525Z,93724.50
2018-07-21T14:45:28.021Z,94153.22
2018-07-21T14:47:56.518Z,94073.14
2018-07-21T14:50:25.123Z,93953.55
2018-07-21T14:52:53.586Z,93994.09
2018-07-21T14:55:22.222Z,93877.53
2018-07-21T14:57:51.249Z,93582.61
2018-07-21T15:00:19.728Z,93581.60
2018-07-21T15:02:48.265Z,93546.13
2018-07-21T15:05:16.781Z,93916.05
2018-07-21T15:07:45.305Z,93662.67
2018-07-21T15:10:13.852Z,93919.09
2018-07-21T15:12:42.498Z,93933.27
2018-07-21T15:15:11.149Z,93867.39
2018-07-21T15:17:39.686Z,93729.56
2018-07-21T15:20:08.450Z,93868.41
2018-07-21T15:22:37.036Z,94122.81
2018-07-21T15:25:05.769Z,94195.79
2018-07-21T15:27:34.269Z,93890.70
2018-07-21T15:30:02.762Z,93769.09
2018-07-21T15:32:31.349Z,93867.39
2018-07-21T15:34:59.848Z,93882.60
2018-07-21T15:37:28.362Z,93894.77
2018-07-21T15:39:56.882Z,93963.68
2018-07-21T15:42:25.366Z,93944.42
2018-07-21T15:44:53.864Z,94118.75
2018-07-21T15:47:22.368Z,94206.94
2018-07-21T15:49:50.826Z,94071.12
2018-07-21T15:52:19.681Z,94133.95
2018-07-21T15:54:48.212Z,94097.47
2018-07-21T15:57:16.701Z,94197.81
2018-07-21T15:59:45.220Z,94270.80
2018-07-21T16:02:13.787Z,94109.63
2018-07-21T16:04:42.306Z,93970.78
2018-07-21T16:07:10.851Z,94140.04
2018-07-21T16:09:39.511Z,94080.24
2018-07-21T16:12:07.949Z,94269.78
2018-07-21T16:14:36.557Z,94243.42
2018-07-21T16:17:05.027Z,94431.97
2018-07-21T16:19:33.502Z,94687.42
2018-07-21T16:22:02.073Z,94602.27
2018-07-21T16:24:30.577Z,94532.31
2018-07-21T16:26:59.038Z,94652.95
2018-07-21T16:29:27.558Z,94907.41
2018-07-21T16:31:56.120Z,94740.13
2018-07-21T16:34:24.982Z,94691.47
2018-07-21T16:36:53.460Z,94556.64
2018-07-21T16:39:21.932Z,94559.69
2018-07-21T16:41:50.431Z,94581.98
2018-07-21T16:44:18.904Z,94754.32
2018-07-21T16:46:47.417Z,94850.63
2018-07-21T16:49:15.925Z,95020.95
2018-07-21T16:51:44.426Z,95013.86
2018-07-21T16:54:12.938Z,95065.56
2018-07-21T16:56:41.434Z,95057.45
2018-07-21T16:59:09.936Z,95067.59
2018-07-21T17:01:38.494Z,95193.31
2018-07-21T17:04:06.981Z,95192.30
2018-07-21T17:06:35.496Z,95082.80
2018-07-21T17:09:04.937Z,95031.09
2018-07-21T17:11:33.444Z,95045.28
2018-07-21T17:14:01.997Z,95349.45
2018-07-21T17:16:30.534Z,95262.25
2018-07-21T17:18:59.055Z,95235.89
2018-07-21T17:21:27.536Z,95342.35
2018-07-21T17:23:56.050Z,95337.28
2018-07-21T17:26:24.532Z,95351.48
2018-07-21T17:28:53.090Z,95350.47
2018-07-21T17:31:21.633Z,95325.12
2018-07-21T17:33:50.236Z,95364.66
2018-07-21T17:36:18.778Z,95446.80
2018-07-21T17:38:47.249Z,95375.81
2018-07-21T17:41:16.073Z,95349.45
2018-07-21T17:43:44.609Z,95382.91
2018-07-21T17:46:13.109Z,95396.09
2018-07-21T17:48:41.664Z,95383.92
2018-07-21T17:51:10.365Z,95456.93
2018-07-21T17:53:38.870Z,95501.55
2018-07-21T17:56:07.413Z,95518.78
2018-07-21T17:58:35.906Z,95680.01
2018-07-21T18:01:04.442Z,95578.61
2018-07-21T18:03:33.081Z,95526.89
2018-07-21T18:06:01.629Z,95549.20
2018-07-21T18:08:30.108Z,95513.71
2018-07-21T18:10:58.687Z,95671.90
2018-07-21T18:13:27.266Z,95575.56
2018-07-21T18:15:55.824Z,95486.33
2018-07-21T18:18:24.488Z,95519.80
2018-07-21T18:20:53.033Z,95560.36
2018-07-21T18:23:21.596Z,95574.55
2018-07-21T18:25:50.125Z,95614.09
2018-07-21T18:28:18.665Z,95714.48
2018-07-21T18:30:47.171Z,95754.03
2018-07-21T18:33:15.780Z,95787.50
2018-07-21T18:35:44.676Z,95696.23
2018-07-21T18:38:13.173Z,95758.09
2018-07-21T18:40:41.714Z,95780.40
2018-07-21T18:43:10.228Z,95659.73
2018-07-21T18:45:38.738Z,95752.00
2018-07-21T18:48:07.304Z,95828.06
2018-07-21T18:50:35.804Z,95923.38
2018-07-21T18:53:04.351Z,95991.33
2018-07-21T18:55:32.850Z,95957.86
2018-07-21T18:58:01.444Z,95919.33
2018-07-21T19:00:30.089Z,95860.52
2018-07-21T19:02:58.565Z,95832.12
2018-07-21T19:05:27.099Z,95859.50
2018-07-21T19:07:55.631Z,95920.34
2018-07-21T19:10:24.278Z,95901.08
2018-07-21T19:12:52.710Z,95935.55
2018-07-21T19:15:26.710Z,95981.19
2018-07-21T19:17:55.277Z,95997.41
2018-07-21T19:20:29.064Z,96086.66
2018-07-21T19:25:45.093Z,96142.44
2018-07-21T19:28:13.598Z,96178.95
2018-07-21T19:30:42.317Z,96204.30
2018-07-21T19:33:13.693Z,96219.52
2018-07-21T19:35:42.282Z,96229.66
2018-07-21T19:38:10.757Z,96236.76
2018-07-21T19:40:39.266Z,96249.94
2018-07-21T19:43:07.838Z,96210.39
2018-07-21T19:45:36.378Z,96210.39
2018-07-21T19:48:04.838Z,96248.92
2018-07-21T19:50:33.429Z,96206.33
2018-07-21T19:53:01.978Z,96228.64
2018-07-21T19:55:30.441Z,96179.96
2018-07-21T19:57:58.929Z,96276.31
2018-07-21T20:00:27.983Z,96310.80
2018-07-21T20:02:56.460Z,96342.23
2018-07-21T20:05:26.092Z,96369.62
2018-07-21T20:07:54.677Z,96355.42
2018-07-21T20:10:23.146Z,96351.36
2018-07-21T20:12:51.684Z,96347.30
2018-07-21T20:15:20.236Z,96309.78
2018-07-21T20:17:48.924Z,96318.91
2018-07-21T20:20:17.419Z,96348.32
2018-07-21T20:22:45.904Z,96379.77
2018-07-21T20:25:14.431Z,96379.77
2018-07-21T20:27:42.914Z,96378.75
2018-07-21T20:30:11.407Z,96373.67
2018-07-21T20:32:39.897Z,96399.03
2018-07-21T20:35:08.454Z,96393.96
2018-07-21T20:37:36.952Z,96420.33
2018-07-21T20:40:05.648Z,96418.30
2018-07-21T20:42:34.206Z,96442.64
2018-07-21T20:45:02.738Z,96442.64
2018-07-21T20:47:33.820Z,96486.25
2018-07-21T20:50:02.361Z,96482.20
2018-07-21T20:52:31.397Z,96522.77
2018-07-21T20:55:00.294Z,96468.00
2018-07-21T20:57:28.837Z,96442.64
2018-07-21T20:59:57.347Z,96498.42
2018-07-21T21:02:25.867Z,96503.50
2018-07-21T21:04:54.348Z,96463.94
2018-07-21T21:07:22.804Z,96480.17
2018-07-21T21:09:51.269Z,96502.48
2018-07-21T21:12:20.285Z,96518.72
2018-07-21T21:14:48.714Z,96534.94
2018-07-21T21:17:17.201Z,96591.74
2018-07-21T21:19:46.095Z,96615.07
2018-07-21T21:22:14.750Z,96618.11
2018-07-21T21:24:43.474Z,96623.19
2018-07-21T21:27:12.048Z,96605.94
2018-07-21T21:29:40.532Z,96630.28
2018-07-21T21:32:09.109Z,96653.61
2018-07-21T21:34:37.632Z,96624.20
2018-07-21T21:37:06.201Z,96671.88
2018-07-21T21:39:34.742Z,96748.96
2018-07-21T21:42:03.314Z,96752.00
2018-07-21T21:44:31.759Z,96721.58
2018-07-21T21:47:00.369Z,96749.97
2018-07-21T21:49:28.849Z,96754.03
2018-07-21T21:51:57.389Z,96771.28
2018-07-21T21:54:26.043Z,96829.09
2018-07-21T21:56:54.589Z,96848.37
2018-07-21T21:59:23.143Z,96831.13
2018-07-21T22:01:51.631Z,96834.16
2018-07-21T22:04:20.207Z,96836.20
2018-07-21T22:06:48.682Z,96885.90
2018-07-21T22:09:17.286Z,96893.00
2018-07-21T22:11:45.788Z,96910.25
2018-07-21T22:14:14.303Z,96940.67
2018-07-21T22:16:42.993Z,96932.56
2018-07-21T22:19:11.482Z,96940.67
2018-07-21T22:21:40.609Z,96948.79
2018-07-21T22:24:09.220Z,96954.88
2018-07-21T22:26:37.765Z,96989.37
2018-07-21T22:29:06.361Z,96972.12
2018-07-21T22:31:34.829Z,96997.48
2018-07-21T22:34:03.366Z,96976.18
2018-07-21T22:36:31.959Z,96995.45
2018-07-21T22:39:00.453Z,97023.86
2018-07-21T22:41:28.992Z,97075.59
2018-07-21T22:43:57.500Z,97041.11
2018-07-21T22:46:26.037Z,97054.30
2018-07-21T22:48:55.097Z,97097.91
2018-07-21T22:51:23.696Z,97080.67
2018-07-21T22:53:52.156Z,97107.04
2018-07-21T22:56:20.719Z,97088.78
2018-07-21T22:58:49.204Z,97114.14
2018-07-21T23:01:17.802Z,97075.59
2018-07-21T23:03:46.336Z,97140.52
2018-07-21T23:06:14.832Z,97133.42
2018-07-21T23:08:43.499Z,97176.02
2018-07-21T23:11:12.009Z,97197.33
2018-07-21T23:13:40.545Z,97198.34
2018-07-21T23:16:09.074Z,97200.38
2018-07-21T23:18:37.619Z,97172.98
2018-07-21T23:21:06.133Z,97157.77
2018-07-21T23:23:34.622Z,97217.62
2018-07-21T23:26:03.129Z,97212.55
2018-07-21T23:28:31.678Z,97219.64
2018-07-21T23:31:00.212Z,97265.30
2018-07-21T23:33:28.841Z,97278.48
2018-07-21T23:35:57.363Z,97245.01
2018-07-21T23:38:25.868Z,97231.82
2018-07-21T23:40:54.502Z,97281.53
2018-07-21T23:43:23.041Z,97284.58
2018-07-21T23:45:51.682Z,97291.67
2018-07-21T23:48:20.248Z,97303.84
2018-07-21T23:50:48.726Z,97318.05
2018-07-21T23:53:17.256Z,97322.11
2018-07-21T23:55:45.720Z,97303.84
2018-07-21T23:58:14.204Z,97315.01
